createdAt,value
2019-05-11T00:01:32.308Z,67.80
2019-05-11T00:04:03.065Z,67.50
2019-05-11T00:06:34.034Z,67.30
2019-05-11T00:09:06.576Z,67.20
2019-05-11T00:11:37.564Z,67.20
2019-05-11T00:14:08.246Z,67.80
2019-05-11T00:16:39.686Z,67.20
2019-05-11T00:19:12.376Z,67.60
2019-05-11T00:21:42.951Z,67.70
2019-05-11T00:24:13.650Z,67.40
2019-05-11T00:26:45.088Z,68.70
2019-05-11T00:29:15.693Z,69.00
2019-05-11T00:31:46.349Z,69.70
2019-05-11T00:34:18.030Z,69.20
2019-05-11T00:36:49.056Z,69.20
2019-05-11T00:39:19.717Z,69.00
2019-05-11T00:41:51.195Z,68.70
2019-05-11T00:44:22.152Z,67.80
2019-05-11T00:46:52.942Z,67.80
2019-05-11T00:49:23.817Z,67.80
2019-05-11T00:51:54.844Z,67.10
2019-05-11T00:54:25.561Z,66.90
2019-05-11T00:56:56.326Z,67.10
2019-05-11T00:59:26.893Z,67.80
2019-05-11T01:01:57.928Z,67.90
2019-05-11T01:04:28.929Z,68.40
2019-05-11T01:07:00.041Z,69.30
2019-05-11T01:09:30.838Z,69.20
2019-05-11T01:12:01.925Z,69.20
2019-05-11T01:14:32.555Z,69.20
2019-05-11T01:17:03.409Z,69.20
2019-05-11T01:19:35.035Z,69.40
2019-05-11T01:22:06.566Z,68.90
2019-05-11T01:24:37.794Z,69.20
2019-05-11T01:27:08.532Z,69.70
2019-05-11T01:29:39.520Z,69.50
2019-05-11T01:32:10.791Z,69.70
2019-05-11T01:34:42.585Z,69.50
2019-05-11T01:37:13.421Z,69.60
2019-05-11T01:39:44.771Z,70.50
2019-05-11T01:42:15.467Z,70.60
2019-05-11T01:44:46.395Z,70.80
2019-05-11T01:47:19.079Z,70.70
2019-05-11T01:49:49.707Z,70.30
2019-05-11T01:52:21.358Z,70.50
2019-05-11T01:54:52.013Z,70.40
2019-05-11T01:57:23.028Z,70.70
2019-05-11T01:59:54.299Z,70.10
2019-05-11T02:02:25.217Z,69.60
2019-05-11T02:05:13.626Z,69.40
2019-05-11T02:07:45.724Z,70.00
2019-05-11T02:10:16.487Z,70.30
2019-05-11T02:12:47.058Z,70.50
2019-05-11T02:15:18.175Z,70.40
2019-05-11T02:17:49.341Z,70.70
2019-05-11T02:20:20.051Z,70.50
2019-05-11T02:22:50.628Z,70.40
2019-05-11T02:25:22.755Z,70.60
2019-05-11T02:27:53.327Z,70.70
2019-05-11T02:30:24.197Z,70.90
2019-05-11T02:32:54.808Z,71.50
2019-05-11T02:35:25.352Z,71.70
2019-05-11T02:37:57.051Z,72.70
2019-05-11T02:40:28.282Z,72.60
2019-05-11T02:43:00.315Z,72.30
2019-05-11T02:45:40.449Z,71.90
2019-05-11T02:48:11.480Z,72.30
2019-05-11T02:50:43.667Z,72.00
2019-05-11T02:53:14.199Z,71.80
2019-05-11T02:55:47.425Z,71.50
2019-05-11T02:58:18.060Z,71.80
2019-05-11T03:00:48.786Z,70.70
2019-05-11T03:03:19.216Z,70.80
2019-05-11T03:05:49.808Z,70.40
2019-05-11T03:08:20.797Z,71.00
2019-05-11T03:10:51.636Z,71.00
2019-05-11T03:13:22.335Z,70.80
2019-05-11T03:15:53.105Z,70.60
2019-05-11T03:18:23.792Z,70.90
2019-05-11T03:20:54.363Z,71.60
2019-05-11T03:23:25.414Z,72.30
2019-05-11T03:25:56.001Z,72.30
2019-05-11T03:28:28.381Z,72.90
2019-05-11T03:30:59.353Z,73.40
2019-05-11T03:33:30.890Z,73.70
2019-05-11T03:36:01.804Z,73.80
2019-05-11T03:38:33.102Z,74.60
2019-05-11T03:41:03.803Z,74.80
2019-05-11T03:43:34.525Z,74.70
2019-05-11T03:46:05.080Z,74.90
2019-05-11T03:48:35.889Z,74.80
2019-05-11T03:51:06.790Z,74.70
2019-05-11T03:53:37.607Z,74.80
2019-05-11T03:56:08.860Z,75.20
2019-05-11T03:58:40.657Z,75.80
2019-05-11T04:01:11.213Z,75.70
2019-05-11T04:03:42.407Z,76.00
2019-05-11T04:06:14.327Z,76.10
2019-05-11T04:08:45.281Z,76.20
2019-05-11T04:11:16.177Z,76.40
2019-05-11T04:13:46.731Z,76.40
2019-05-11T04:16:17.887Z,76.30
2019-05-11T04:18:48.836Z,76.50
2019-05-11T04:21:19.901Z,76.40
2019-05-11T04:23:51.417Z,76.80
2019-05-11T04:26:22.223Z,77.20
2019-05-11T04:28:52.733Z,76.80
2019-05-11T04:31:23.728Z,77.20
2019-05-11T04:33:54.709Z,77.00
2019-05-11T04:36:25.597Z,76.40
2019-05-11T04:38:56.916Z,75.50
2019-05-11T04:41:27.475Z,74.30
2019-05-11T04:43:58.320Z,74.30
2019-05-11T04:46:29.125Z,74.20
2019-05-11T04:48:59.863Z,74.60
2019-05-11T04:51:30.538Z,74.30
2019-05-11T04:54:01.605Z,74.30
2019-05-11T04:56:32.262Z,74.10
2019-05-11T04:59:03.599Z,73.50
2019-05-11T05:01:34.611Z,73.80
2019-05-11T05:04:14.070Z,74.10
2019-05-11T05:06:39.028Z,73.30
2019-05-11T05:09:09.872Z,73.80
2019-05-11T05:11:40.522Z,74.10
2019-05-11T05:14:11.378Z,73.60
2019-05-11T05:16:42.091Z,73.00
2019-05-11T05:19:13.185Z,73.10
2019-05-11T05:21:44.763Z,73.00
2019-05-11T05:24:15.488Z,73.20
2019-05-11T05:26:46.415Z,73.10
2019-05-11T05:29:17.024Z,72.40
2019-05-11T05:31:48.279Z,72.70
2019-05-11T05:34:18.944Z,72.70
2019-05-11T05:36:49.802Z,72.90
2019-05-11T05:39:20.315Z,72.10
2019-05-11T05:41:57.031Z,72.00
2019-05-11T05:44:23.183Z,71.40
2019-05-11T05:46:53.709Z,71.70
2019-05-11T05:49:25.100Z,72.10
2019-05-11T05:51:58.235Z,71.40
2019-05-11T05:54:27.940Z,71.30
2019-05-11T05:56:58.816Z,70.90
2019-05-11T05:59:30.120Z,71.20
2019-05-11T06:02:00.726Z,70.10
2019-05-11T06:04:32.486Z,69.60
2019-05-11T06:07:03.357Z,70.80
2019-05-11T06:09:33.985Z,70.20
2019-05-11T06:12:04.555Z,69.80
2019-05-11T06:14:35.571Z,69.70
2019-05-11T06:17:06.107Z,68.60
2019-05-11T06:19:37.172Z,68.20
2019-05-11T06:22:08.026Z,67.00
2019-05-11T06:24:38.975Z,67.10
2019-05-11T06:27:09.876Z,66.30
2019-05-11T06:29:41.232Z,65.80
2019-05-11T06:32:12.414Z,65.90
2019-05-11T06:34:43.055Z,65.60
2019-05-11T06:37:13.792Z,64.80
2019-05-11T06:39:44.591Z,64.10
2019-05-11T06:42:15.612Z,62.60
2019-05-11T06:44:46.549Z,60.60
2019-05-11T06:47:17.626Z,60.70
2019-05-11T06:49:48.923Z,59.50
2019-05-11T06:52:19.936Z,58.60
2019-05-11T06:54:50.764Z,58.40
2019-05-11T06:57:21.603Z,58.30
2019-05-11T06:59:52.718Z,57.80
2019-05-11T07:02:25.095Z,57.30
2019-05-11T07:04:55.828Z,57.30
2019-05-11T07:07:27.819Z,56.90
2019-05-11T07:09:59.258Z,56.70
2019-05-11T07:12:30.503Z,56.30
2019-05-11T07:15:01.648Z,55.90
2019-05-11T07:17:32.800Z,55.40
2019-05-11T07:20:06.577Z,55.40
2019-05-11T07:22:37.503Z,55.30
2019-05-11T07:25:09.043Z,55.40
2019-05-11T07:27:40.377Z,55.40
2019-05-11T07:30:11.905Z,55.60
2019-05-11T07:32:44.347Z,55.40
2019-05-11T07:35:15.519Z,55.10
2019-05-11T07:37:48.506Z,54.70
2019-05-11T07:40:19.848Z,54.70
2019-05-11T07:42:51.186Z,54.30
2019-05-11T07:45:22.027Z,54.70
2019-05-11T07:47:54.194Z,55.40
2019-05-11T07:50:25.367Z,55.90
2019-05-11T07:52:58.675Z,56.70
2019-05-11T07:55:29.827Z,57.00
2019-05-11T07:58:01.532Z,57.40
2019-05-11T08:00:37.477Z,56.50
2019-05-11T08:03:09.023Z,57.10
2019-05-11T08:05:40.211Z,57.40
2019-05-11T08:08:10.814Z,57.30
2019-05-11T08:10:41.927Z,56.30
2019-05-11T08:13:12.712Z,56.00
2019-05-11T08:15:43.392Z,56.50
2019-05-11T08:18:13.931Z,55.70
2019-05-11T08:20:47.873Z,55.20
2019-05-11T08:23:18.176Z,54.80
2019-05-11T08:25:49.262Z,54.30
2019-05-11T08:28:21.005Z,54.40
2019-05-11T08:30:51.655Z,55.50
2019-05-11T08:33:22.663Z,56.10
2019-05-11T08:35:53.134Z,57.80
2019-05-11T08:38:25.472Z,60.40
2019-05-11T08:40:56.171Z,60.70
2019-05-11T08:43:28.507Z,60.90
2019-05-11T08:45:59.289Z,60.60
2019-05-11T08:48:29.852Z,61.50
2019-05-11T08:51:00.734Z,62.60
2019-05-11T08:53:33.297Z,60.10
2019-05-11T08:56:04.023Z,60.70
2019-05-11T08:58:34.837Z,61.10
2019-05-11T09:01:05.601Z,60.50
2019-05-11T09:03:38.646Z,59.90
2019-05-11T09:06:08.985Z,60.30
2019-05-11T09:08:39.636Z,59.70
2019-05-11T09:11:10.698Z,60.50
2019-05-11T09:13:42.719Z,59.70
2019-05-11T09:16:15.781Z,57.70
2019-05-11T09:18:47.916Z,58.30
2019-05-11T09:21:19.269Z,56.30
2019-05-11T09:23:50.032Z,56.00
2019-05-11T09:26:20.988Z,55.20
2019-05-11T09:28:51.599Z,53.30
2019-05-11T09:31:22.146Z,52.10
2019-05-11T09:33:52.864Z,51.20
2019-05-11T09:36:23.742Z,50.70
2019-05-11T09:38:57.980Z,51.50
2019-05-11T09:41:28.953Z,51.20
2019-05-11T09:44:00.113Z,51.50
2019-05-11T09:46:30.627Z,52.00
2019-05-11T09:49:01.593Z,51.90
2019-05-11T09:51:32.148Z,51.60
2019-05-11T09:54:02.695Z,51.20
2019-05-11T09:56:33.308Z,50.00
2019-05-11T09:59:05.068Z,53.10
2019-05-11T10:01:37.809Z,53.00
2019-05-11T10:04:09.129Z,52.50
2019-05-11T10:06:40.424Z,53.80
2019-05-11T10:09:11.320Z,52.30
2019-05-11T10:11:41.855Z,52.80
2019-05-11T10:14:13.621Z,52.70
2019-05-11T10:16:44.267Z,51.80
2019-05-11T10:19:17.692Z,50.40
2019-05-11T10:21:48.797Z,51.20
2019-05-11T11:47:31.881Z,37.10
2019-05-11T11:50:08.918Z,37.70
2019-05-11T11:52:39.233Z,37.90
2019-05-11T11:55:09.991Z,38.70
2019-05-11T11:57:41.399Z,38.70
2019-05-11T12:00:15.434Z,38.80
2019-05-11T12:02:48.728Z,38.70
2019-05-11T12:05:20.760Z,37.80
2019-05-11T12:07:51.857Z,37.40
2019-05-11T12:10:22.545Z,37.30
2019-05-11T12:12:59.260Z,37.40
2019-05-11T12:15:31.240Z,37.50
2019-05-11T12:18:05.027Z,37.10
2019-05-11T12:20:35.770Z,36.30
2019-05-11T12:23:10.571Z,35.90
2019-05-11T12:25:41.323Z,34.70
2019-05-11T12:28:12.105Z,34.70
2019-05-11T12:30:43.292Z,33.40
2019-05-11T12:33:13.851Z,32.60
2019-05-11T12:35:44.527Z,31.80
2019-05-11T12:38:15.072Z,31.00
2019-05-11T12:40:47.666Z,30.90
2019-05-11T12:43:22.436Z,31.80
2019-05-11T12:45:52.182Z,33.40
2019-05-11T12:48:23.583Z,35.10
2019-05-11T12:50:55.319Z,35.60
2019-05-11T12:53:28.070Z,36.50
2019-05-11T12:55:59.051Z,37.50
2019-05-11T12:58:34.291Z,39.00
2019-05-11T13:01:05.002Z,40.40
2019-05-11T13:03:38.397Z,39.70
2019-05-11T13:06:08.376Z,38.70
2019-05-11T13:08:39.727Z,39.10
2019-05-11T13:11:10.364Z,40.10
2019-05-11T13:13:42.085Z,41.30
2019-05-11T13:16:14.424Z,42.20
2019-05-11T13:18:45.498Z,42.10
2019-05-11T13:21:18.341Z,42.00
2019-05-11T13:23:50.002Z,41.20
2019-05-11T13:26:21.314Z,41.50
2019-05-11T13:28:51.970Z,41.80
2019-05-11T13:31:27.682Z,42.00
2019-05-11T13:33:58.565Z,42.50
2019-05-11T13:36:30.072Z,42.80
2019-05-11T13:39:01.029Z,42.40
2019-05-11T13:41:31.636Z,42.10
2019-05-11T13:44:02.376Z,42.00
2019-05-11T13:46:34.147Z,41.40
2019-05-11T13:49:05.140Z,41.50
2019-05-11T13:51:36.130Z,42.00
2019-05-11T13:54:07.907Z,41.70
2019-05-11T13:56:39.026Z,42.10
2019-05-11T13:59:10.898Z,42.40
2019-05-11T14:01:41.888Z,42.70
2019-05-11T14:04:13.924Z,43.10
2019-05-11T14:06:44.524Z,43.30
2019-05-11T14:09:18.259Z,43.90
2019-05-11T14:11:48.498Z,44.00
2019-05-11T14:14:19.446Z,44.40
2019-05-11T14:16:50.579Z,44.30
2019-05-11T14:19:22.069Z,44.40
2019-05-11T14:21:52.626Z,44.30
2019-05-11T14:24:24.151Z,45.00
2019-05-11T14:26:54.655Z,45.30
2019-05-11T14:29:27.714Z,45.50
2019-05-11T14:31:58.274Z,46.50
2019-05-11T14:34:28.979Z,50.80
2019-05-11T14:36:59.550Z,55.70
2019-05-11T14:39:30.827Z,60.20
2019-05-11T14:42:02.342Z,63.70
2019-05-11T14:44:33.148Z,66.90
2019-05-11T14:47:03.714Z,70.90
2019-05-11T14:49:35.217Z,73.60
2019-05-11T14:52:08.070Z,75.10
2019-05-11T14:54:38.729Z,73.00
2019-05-11T14:57:10.744Z,74.70
2019-05-11T14:59:41.870Z,75.70
2019-05-11T15:02:31.113Z,76.80
2019-05-11T15:05:01.965Z,77.30
2019-05-11T15:07:33.063Z,77.20
2019-05-11T15:10:04.000Z,79.60
2019-05-11T15:12:37.994Z,78.10
2019-05-11T15:15:11.854Z,79.40
2019-05-11T15:17:42.739Z,78.90
2019-05-11T15:20:14.504Z,79.40
2019-05-11T15:22:45.102Z,80.90
2019-05-11T15:25:19.398Z,81.20
2019-05-11T15:27:49.775Z,81.10
2019-05-11T15:30:21.172Z,82.20
2019-05-11T15:32:51.988Z,82.10
2019-05-11T15:35:23.730Z,80.70
2019-05-11T15:37:54.714Z,80.80
2019-05-11T15:40:27.912Z,81.40
2019-05-11T15:42:58.748Z,80.80
2019-05-11T15:45:29.387Z,82.40
2019-05-11T15:47:59.984Z,80.40
2019-05-11T15:50:30.795Z,81.00
2019-05-11T15:53:01.741Z,81.90
2019-05-11T15:55:32.780Z,79.60
2019-05-11T15:58:05.232Z,79.00
2019-05-11T16:00:39.768Z,77.20
2019-05-11T16:03:08.329Z,79.30
2019-05-11T16:05:39.477Z,79.30
2019-05-11T16:08:10.451Z,81.10
2019-05-11T16:10:43.089Z,83.70
2019-05-11T16:13:14.342Z,84.90
2019-05-11T16:15:47.561Z,85.70
2019-05-11T16:18:18.852Z,85.80
2019-05-11T16:20:51.303Z,82.50
2019-05-11T16:23:22.526Z,83.20
2019-05-11T16:25:58.090Z,83.40
2019-05-11T16:28:30.794Z,83.30
2019-05-11T16:31:02.820Z,83.20
2019-05-11T16:33:33.435Z,83.30
2019-05-11T16:36:09.012Z,82.90
2019-05-11T16:38:42.323Z,85.00
2019-05-11T16:41:13.656Z,84.60
2019-05-11T16:43:44.795Z,85.20
2019-05-11T16:46:17.738Z,87.00
2019-05-11T16:48:51.198Z,87.20
2019-05-11T16:51:22.011Z,88.60
2019-05-11T16:53:53.167Z,87.90
2019-05-11T16:56:23.898Z,86.90
2019-05-11T16:58:55.034Z,88.60
2019-05-11T17:01:25.863Z,87.70
2019-05-11T17:03:57.828Z,86.20
2019-05-11T17:06:32.006Z,86.80
2019-05-11T17:09:03.306Z,88.10
2019-05-11T17:11:33.854Z,86.70
2019-05-11T17:14:04.520Z,87.20
2019-05-11T17:16:35.156Z,85.00
2019-05-11T17:19:07.867Z,85.00
2019-05-11T17:21:39.775Z,85.80
2019-05-11T17:24:10.505Z,86.10
2019-05-11T17:26:41.549Z,83.60
2019-05-11T17:29:12.166Z,83.70
2019-05-11T17:31:43.407Z,85.20
2019-05-11T17:34:17.709Z,85.20
2019-05-11T17:36:47.591Z,83.20
2019-05-11T17:39:19.978Z,82.80
2019-05-11T17:41:55.253Z,83.20
2019-05-11T17:44:26.808Z,83.10
2019-05-11T17:46:57.840Z,81.40
2019-05-11T17:49:29.050Z,84.60
2019-05-11T17:51:59.613Z,81.40
2019-05-11T17:54:30.775Z,79.90
2019-05-11T17:57:01.288Z,80.60
2019-05-11T17:59:32.550Z,80.20
2019-05-11T18:02:03.780Z,82.40
2019-05-11T18:04:36.483Z,82.10
2019-05-11T18:07:07.698Z,81.60
2019-05-11T18:09:38.609Z,82.20
2019-05-11T18:12:11.160Z,82.20
2019-05-11T18:14:42.802Z,83.90
2019-05-11T18:17:13.325Z,83.20
2019-05-11T18:19:44.507Z,80.90
2019-05-11T18:22:17.854Z,80.60
2019-05-11T18:24:49.031Z,84.20
2019-05-11T18:27:19.704Z,83.40
2019-05-11T18:29:50.236Z,84.00
2019-05-11T18:32:20.799Z,84.00
2019-05-11T18:34:54.139Z,84.20
2019-05-11T18:37:28.100Z,85.00
2019-05-11T18:39:59.140Z,85.10
2019-05-11T18:42:30.059Z,86.00
2019-05-11T18:45:02.682Z,84.50
2019-05-11T18:47:34.475Z,85.20
2019-05-11T18:50:05.690Z,84.90
2019-05-11T18:52:36.310Z,84.00
2019-05-11T18:55:08.371Z,84.20
2019-05-11T18:57:39.229Z,81.30
2019-05-11T19:00:10.430Z,84.40
2019-05-11T19:02:41.834Z,84.40
2019-05-11T19:05:12.742Z,85.00
2019-05-11T19:07:44.061Z,86.20
2019-05-11T19:10:15.117Z,84.30
2019-05-11T19:12:48.628Z,85.40
2019-05-11T19:15:19.693Z,84.90
2019-05-11T19:17:51.523Z,88.10
2019-05-11T19:20:22.508Z,87.30
2019-05-11T19:22:54.037Z,88.10
2019-05-11T19:25:24.911Z,87.70
2019-05-11T19:27:55.524Z,88.40
2019-05-11T19:30:27.732Z,87.70
2019-05-11T19:32:59.067Z,87.40
2019-05-11T19:35:29.994Z,87.70
2019-05-11T19:38:00.908Z,88.00
2019-05-11T19:40:31.787Z,88.00
2019-05-11T19:43:02.407Z,87.90
2019-05-11T19:45:33.754Z,84.60
2019-05-11T19:48:04.451Z,84.90
2019-05-11T19:50:35.275Z,84.10
2019-05-11T19:53:08.202Z,84.30
2019-05-11T19:55:38.902Z,82.80
2019-05-11T19:58:09.688Z,82.50
2019-05-11T20:00:48.835Z,83.70
2019-05-11T20:03:19.664Z,82.90
2019-05-11T20:05:50.591Z,84.90
2019-05-11T20:08:21.368Z,82.50
2019-05-11T20:10:53.084Z,81.90
2019-05-11T20:13:24.379Z,82.40
2019-05-11T20:15:57.684Z,81.50
2019-05-11T20:18:28.972Z,82.50
2019-05-11T20:20:59.722Z,84.10
2019-05-11T20:23:30.889Z,84.80
2019-05-11T20:26:02.108Z,84.00
2019-05-11T20:28:33.391Z,82.50
2019-05-11T20:31:07.840Z,83.00
2019-05-11T20:33:38.515Z,82.40
2019-05-11T20:36:09.541Z,83.50
2019-05-11T20:38:40.295Z,82.40
2019-05-11T20:41:11.916Z,83.80
2019-05-11T20:43:43.137Z,84.20
2019-05-11T20:46:13.988Z,82.50
2019-05-11T20:48:44.922Z,84.50
2019-05-11T20:51:32.184Z,84.60
2019-05-11T20:53:48.964Z,84.10
2019-05-11T20:56:20.033Z,85.20
2019-05-11T20:58:59.413Z,84.00
2019-05-11T21:01:30.340Z,84.70
2019-05-11T21:04:02.330Z,84.80
2019-05-11T21:06:32.928Z,84.20
2019-05-11T21:09:04.449Z,85.10
2019-05-11T21:11:36.384Z,83.60
2019-05-11T21:14:08.058Z,82.50
2019-05-11T21:16:39.641Z,82.50
2019-05-11T21:19:10.187Z,82.60
2019-05-11T21:21:49.835Z,81.70
2019-05-11T21:24:13.203Z,81.60
2019-05-11T21:26:44.258Z,81.30
2019-05-11T21:29:15.236Z,82.00
2019-05-11T21:31:48.377Z,82.70
2019-05-11T21:34:18.768Z,82.50
2019-05-11T21:36:49.901Z,81.00
2019-05-11T21:39:20.475Z,82.20
2019-05-11T21:41:52.242Z,81.60
2019-05-11T21:44:23.386Z,81.50
2019-05-11T21:46:54.138Z,82.30
2019-05-11T21:49:25.299Z,82.40
2019-05-11T21:52:04.157Z,82.40
2019-05-11T21:54:30.313Z,82.50
2019-05-11T21:57:00.714Z,82.40
2019-05-11T21:59:32.952Z,82.30
2019-05-11T22:02:03.601Z,82.30
2019-05-11T22:04:34.214Z,81.60
2019-05-11T22:07:07.858Z,83.00
2019-05-11T22:09:38.405Z,82.20
2019-05-11T22:12:10.853Z,82.20
2019-05-11T22:14:42.643Z,83.00
2019-05-11T22:17:13.232Z,81.30
2019-05-11T22:19:44.098Z,81.00
2019-05-11T22:22:23.625Z,81.20
2019-05-11T22:24:47.748Z,82.30
2019-05-11T22:27:18.741Z,82.30
2019-05-11T22:29:49.686Z,82.10
2019-05-11T22:32:20.627Z,81.60
2019-05-11T22:34:51.981Z,82.10
2019-05-11T22:37:23.193Z,81.00
2019-05-11T22:39:53.907Z,80.50
2019-05-11T22:42:24.635Z,81.00
2019-05-11T22:44:55.587Z,81.60
2019-05-11T22:47:28.255Z,80.90
2019-05-11T22:49:58.485Z,80.70
2019-05-11T22:52:36.092Z,80.60
2019-05-11T22:55:03.242Z,80.60
2019-05-11T22:57:33.776Z,80.70
2019-05-11T23:00:07.994Z,80.90
2019-05-11T23:02:38.463Z,80.40
2019-05-11T23:05:10.020Z,81.80
2019-05-11T23:07:41.757Z,81.50
2019-05-11T23:10:12.719Z,81.40
2019-05-11T23:12:43.927Z,79.20
2019-05-11T23:15:15.179Z,80.00
2019-05-11T23:17:45.775Z,80.70
2019-05-11T23:20:16.766Z,79.10
2019-05-11T23:22:57.357Z,78.90
2019-05-11T23:25:22.024Z,79.80
2019-05-11T23:27:52.574Z,78.60
2019-05-11T23:30:23.305Z,78.40
2019-05-11T23:32:54.525Z,77.60
2019-05-11T23:35:25.264Z,78.40
2019-05-11T23:37:57.994Z,77.80
2019-05-11T23:40:28.577Z,77.00
2019-05-11T23:42:59.294Z,76.80
2019-05-11T23:45:30.085Z,77.30
2019-05-11T23:48:00.638Z,78.40
2019-05-11T23:50:34.052Z,79.50
2019-05-11T23:53:09.681Z,79.80
2019-05-11T23:55:39.681Z,78.30
2019-05-11T23:58:14.727Z,77.30
